Time;durP1;ratioP1;P1;durP2;ratioP2;P2;SDS_P1;SDS_P2;PMS_P1;PMS_P2;Temp;Humidity;BMP_temperature;BMP_pressure;BME280_temperature;BME280_humidity;BME280_pressure;Samples;Min_cycle;Max_cycle;Signal;HPM_P1;HPM_P2
2020/12/02 00:04:15;;;;;;;37.25;23.27;;;4.80;99.70;;;;;;10535268;28;20131;-66
2020/12/02 00:09:20;;;;;;;35.38;22.92;;;4.80;99.70;;;;;;10535345;28;20285;-66
2020/12/02 00:14:27;;;;;;;36.88;22.92;;;4.70;99.70;;;;;;10534816;28;20500;-66
2020/12/02 00:19:29;;;;;;;50.30;25.55;;;4.70;99.90;;;;;;10534343;28;20072;-66
2020/12/02 00:24:33;;;;;;;39.90;22.75;;;4.80;99.90;;;;;;10535212;28;20080;-66
2020/12/02 00:29:35;;;;;;;40.55;23.73;;;4.60;99.90;;;;;;10534495;28;20070;-66
2020/12/02 00:34:37;;;;;;;39.88;22.67;;;4.60;99.90;;;;;;10534262;28;20044;-66
2020/12/02 00:39:38;;;;;;;37.25;22.20;;;4.50;99.90;;;;;;10535012;28;20488;-66
2020/12/02 00:44:40;;;;;;;39.33;22.60;;;4.60;99.90;;;;;;10532949;28;20123;-67
2020/12/02 00:49:41;;;;;;;37.55;22.08;;;4.60;99.90;;;;;;10534316;28;20106;-66
2020/12/02 00:54:44;;;;;;;36.58;21.58;;;4.60;99.90;;;;;;10534755;28;20131;-66
2020/12/02 00:59:52;;;;;;;33.17;20.75;;;4.60;99.90;;;;;;10533598;28;20127;-66
2020/12/02 01:04:53;;;;;;;37.10;21.92;;;4.70;99.90;;;;;;10534762;28;20218;-66
2020/12/02 01:09:56;;;;;;;36.58;21.75;;;4.70;99.90;;;;;;10534373;28;20075;-67
2020/12/02 01:14:58;;;;;;;32.97;20.17;;;4.80;99.80;;;;;;10535282;28;20410;-67
2020/12/02 01:20:00;;;;;;;31.15;20.15;;;4.70;99.50;;;;;;10539228;28;20040;-66
2020/12/02 01:25:10;;;;;;;29.73;19.30;;;4.80;99.50;;;;;;10538635;28;20119;-67
2020/12/02 01:30:14;;;;;;;38.47;21.55;;;4.80;99.20;;;;;;10536435;28;20054;-67
2020/12/02 01:35:23;;;;;;;32.70;20.25;;;4.80;99.40;;;;;;10536827;28;20390;-67
2020/12/02 01:40:28;;;;;;;33.20;20.50;;;4.80;99.20;;;;;;10538225;28;20036;-67
2020/12/02 01:45:37;;;;;;;32.60;20.10;;;4.80;99.30;;;;;;10537803;28;20071;-66
2020/12/02 01:50:51;;;;;;;31.42;20.15;;;4.90;99.30;;;;;;10540395;28;20110;-67
2020/12/02 01:56:08;;;;;;;36.72;21.45;;;4.80;98.90;;;;;;10539140;28;20052;-66
2020/12/02 02:01:23;;;;;;;38.08;21.25;;;4.60;99.50;;;;;;10539371;28;20087;-66
2020/12/02 02:06:56;;;;;;;35.00;20.35;;;4.60;99.40;;;;;;10539881;28;20047;-66
2020/12/02 02:12:09;;;;;;;37.83;20.75;;;4.60;99.50;;;;;;10530412;28;20048;-66
2020/12/02 02:17:10;;;;;;;39.25;22.10;;;4.30;99.90;;;;;;10539150;28;20052;-66
2020/12/02 02:22:11;;;;;;;44.20;22.75;;;4.40;99.90;;;;;;10538759;28;20446;-66
2020/12/02 02:27:14;;;;;;;46.85;22.92;;;4.40;99.90;;;;;;10538084;28;20492;-66
2020/12/02 02:32:28;;;;;;;42.67;22.80;;;4.30;99.90;;;;;;10538831;28;20139;-66
2020/12/02 02:37:31;;;;;;;43.00;22.63;;;4.20;99.90;;;;;;10538667;28;20078;-66
2020/12/02 02:42:39;;;;;;;44.10;22.67;;;4.20;99.90;;;;;;10537707;28;20493;-66
2020/12/02 02:47:42;;;;;;;42.47;22.63;;;4.20;99.90;;;;;;10538136;28;20075;-67
2020/12/02 02:52:44;;;;;;;37.20;21.45;;;4.10;99.90;;;;;;10537750;28;20142;-66
2020/12/02 02:57:46;;;;;;;41.03;22.45;;;4.10;99.90;;;;;;10536066;28;20089;-66
2020/12/02 03:02:47;;;;;;;36.20;20.20;;;4.30;99.90;;;;;;10537156;28;20075;-66
2020/12/02 03:07:54;;;;;;;36.08;20.38;;;4.30;99.90;;;;;;10535972;28;20492;-66
2020/12/02 03:12:59;;;;;;;44.85;22.83;;;4.50;99.90;;;;;;10536492;28;20072;-66
2020/12/02 03:18:01;;;;;;;52.05;24.52;;;4.70;99.90;;;;;;10535888;28;20151;-67
2020/12/02 03:23:03;;;;;;;64.82;26.25;;;4.50;99.90;;;;;;10536923;28;20090;-66
2020/12/02 03:28:05;;;;;;;56.08;25.25;;;4.30;99.90;;;;;;10535106;28;20064;-67
2020/12/02 03:33:10;;;;;;;49.22;23.92;;;4.30;99.90;;;;;;10536176;28;20080;-67
2020/12/02 03:38:11;;;;;;;46.22;23.52;;;4.30;99.90;;;;;;10535814;28;20148;-66
2020/12/02 03:43:12;;;;;;;41.17;22.85;;;4.40;99.90;;;;;;10535351;28;20075;-67
2020/12/02 03:48:16;;;;;;;46.53;24.15;;;4.50;99.90;;;;;;10534772;28;20055;-66
2020/12/02 03:53:18;;;;;;;50.53;24.40;;;4.60;99.90;;;;;;10535712;28;20051;-67
2020/12/02 03:58:21;;;;;;;51.03;24.70;;;4.60;99.90;;;;;;10534849;28;20054;-66
2020/12/02 04:03:22;;;;;;;58.88;25.15;;;4.70;99.90;;;;;;10535039;28;20571;-66
2020/12/02 04:08:24;;;;;;;57.63;25.92;;;4.80;99.90;;;;;;10535958;28;20048;-66
2020/12/02 04:13:26;;;;;;;41.22;23.20;;;4.80;99.90;;;;;;10534370;28;20377;-67
2020/12/02 04:18:28;;;;;;;50.33;24.30;;;4.70;99.90;;;;;;10535661;28;20044;-67
2020/12/02 04:23:29;;;;;;;42.15;23.38;;;4.70;99.90;;;;;;10535044;28;20136;-66
2020/12/02 04:28:31;;;;;;;49.40;25.27;;;4.80;99.90;;;;;;10532731;28;20075;-66
2020/12/02 04:33:32;;;;;;;52.75;25.40;;;4.80;99.90;;;;;;10535610;28;20147;-66
2020/12/02 04:38:34;;;;;;;44.92;24.27;;;4.80;99.80;;;;;;10534880;28;20044;-66
2020/12/02 04:43:38;;;;;;;53.80;25.20;;;4.80;99.80;;;;;;10533964;28;20514;-67
2020/12/02 04:48:42;;;;;;;57.42;26.60;;;4.90;99.90;;;;;;10537624;28;20479;-67
2020/12/02 04:53:48;;;;;;;58.05;26.65;;;4.90;99.70;;;;;;10542612;28;20122;-67
2020/12/02 04:58:50;;;;;;;49.13;26.13;;;4.80;99.80;;;;;;10542166;28;20056;-66
2020/12/02 05:04:03;;;;;;;46.38;24.42;;;4.80;99.90;;;;;;10542208;28;20044;-67
2020/12/02 05:09:05;;;;;;;48.55;24.98;;;4.90;99.60;;;;;;10541090;28;20400;-66
2020/12/02 05:14:12;;;;;;;48.55;25.65;;;5.00;99.60;;;;;;10541101;28;20048;-66
2020/12/02 05:19:20;;;;;;;50.53;25.98;;;5.00;99.40;;;;;;10541753;28;20047;-66
2020/12/02 05:24:21;;;;;;;55.95;26.83;;;5.00;99.30;;;;;;10539983;28;20052;-67
2020/12/02 05:29:25;;;;;;;57.20;27.15;;;5.00;99.50;;;;;;10540532;28;20040;-66
2020/12/02 05:34:29;;;;;;;50.42;25.98;;;4.90;99.60;;;;;;10540529;28;20052;-67
2020/12/02 05:39:56;;;;;;;47.60;25.25;;;4.80;99.30;;;;;;10540606;28;20097;-66
2020/12/02 05:45:40;;;;;;;53.05;27.00;;;4.90;99.40;;;;;;10539783;28;20052;-67
2020/12/02 05:50:42;;;;;;;59.13;27.58;;;4.90;99.80;;;;;;10451535;28;20064;-66
2020/12/02 05:55:44;;;;;;;65.57;28.65;;;4.90;99.80;;;;;;10521692;28;20044;-67
2020/12/02 06:00:46;;;;;;;64.40;29.58;;;4.90;99.90;;;;;;10537931;28;20076;-66
2020/12/02 06:05:47;;;;;;;60.88;28.38;;;4.90;99.90;;;;;;10539848;28;20050;-66
2020/12/02 06:10:49;;;;;;;53.72;26.70;;;4.90;99.70;;;;;;10539606;28;20074;-66
2020/12/02 06:15:50;;;;;;;50.17;25.95;;;4.90;99.90;;;;;;10538448;28;20414;-66
2020/12/02 06:20:52;;;;;;;57.90;28.75;;;4.90;99.70;;;;;;10539111;28;20048;-66
2020/12/02 06:25:55;;;;;;;51.28;25.27;;;4.80;99.50;;;;;;10538258;28;20062;-66
2020/12/02 06:30:58;;;;;;;53.25;27.02;;;4.80;99.90;;;;;;10537729;28;20134;-66
2020/12/02 06:36:14;;;;;;;55.53;27.75;;;4.80;99.90;;;;;;10538085;28;20083;-66
2020/12/02 06:41:31;;;;;;;60.17;28.35;;;4.80;99.90;;;;;;10538251;28;20131;-67
2020/12/02 06:46:48;;;;;;;63.38;29.13;;;4.80;99.60;;;;;;10538010;28;20044;-66
2020/12/02 06:52:05;;;;;;;60.58;29.08;;;4.90;99.80;;;;;;10537662;28;20048;-66
2020/12/02 06:57:19;;;;;;;69.07;31.27;;;4.70;99.90;;;;;;10537151;28;20079;-66
2020/12/02 07:02:41;;;;;;;60.95;29.73;;;4.70;99.90;;;;;;10537451;28;20123;-67
2020/12/02 07:07:42;;;;;;;69.88;30.50;;;4.80;99.90;;;;;;10497529;28;20094;-66
2020/12/02 07:12:44;;;;;;;65.80;29.92;;;4.80;99.90;;;;;;10535219;28;20148;-67
2020/12/02 07:17:46;;;;;;;82.45;33.50;;;4.90;99.90;;;;;;10536709;28;20404;-66
2020/12/02 07:22:54;;;;;;;81.25;34.35;;;4.80;99.90;;;;;;10536776;28;20135;-66
2020/12/02 07:27:56;;;;;;;63.33;30.35;;;4.90;99.90;;;;;;10536227;28;20131;-66
2020/12/02 07:33:10;;;;;;;69.80;31.77;;;4.90;99.90;;;;;;10536541;28;20079;-66
2020/12/02 07:38:14;;;;;;;71.25;30.83;;;4.90;99.90;;;;;;10536857;28;20204;-67
2020/12/02 07:43:27;;;;;;;94.03;34.20;;;4.90;99.90;;;;;;10535514;28;20054;-67
2020/12/02 07:48:30;;;;;;;66.88;31.20;;;4.90;99.90;;;;;;10534312;28;20488;-66
2020/12/02 07:53:39;;;;;;;103.57;35.35;;;4.90;99.90;;;;;;10535896;28;20530;-67
2020/12/02 07:58:41;;;;;;;88.05;33.05;;;4.90;99.90;;;;;;10535001;28;20131;-66
2020/12/02 08:03:43;;;;;;;110.88;34.03;;;4.80;99.90;;;;;;10535467;28;20412;-66
2020/12/02 08:08:45;;;;;;;111.63;36.65;;;4.80;99.90;;;;;;10533985;28;20048;-66
2020/12/02 08:13:52;;;;;;;64.97;30.73;;;4.80;99.90;;;;;;10534866;28;20083;-66
2020/12/02 08:18:56;;;;;;;57.70;28.75;;;4.80;99.90;;;;;;10535391;28;20044;-66
2020/12/02 08:24:42;;;;;;;65.55;28.67;;;4.80;99.90;;;;;;10538898;28;20058;-66
2020/12/02 08:29:49;;;;;;;69.13;29.40;;;4.80;99.90;;;;;;10541430;28;20046;-67
2020/12/02 08:34:50;;;;;;;51.85;25.52;;;4.90;99.90;;;;;;10543162;28;20422;-66
2020/12/02 08:39:55;;;;;;;49.03;25.50;;;4.90;99.90;;;;;;10542886;28;20079;-67
2020/12/02 08:45:26;;;;;;;59.50;27.38;;;4.90;99.90;;;;;;10529174;28;20056;-66
2020/12/02 08:50:30;;;;;;;69.23;27.87;;;4.80;99.90;;;;;;10533564;28;20122;-67
2020/12/02 08:55:31;;;;;;;63.95;27.13;;;4.80;99.90;;;;;;10530499;28;20337;-67
2020/12/02 09:00:33;;;;;;;60.63;27.05;;;4.90;99.90;;;;;;10521080;28;20071;-67
2020/12/02 09:05:38;;;;;;;65.80;27.48;;;5.00;99.90;;;;;;10523951;28;20424;-66
2020/12/02 09:10:39;;;;;;;58.47;24.05;;;5.10;99.90;;;;;;10525424;28;20072;-67
2020/12/02 09:15:41;;;;;;;59.65;23.83;;;5.00;99.90;;;;;;10517868;28;20113;-67
2020/12/02 09:20:42;;;;;;;49.72;23.33;;;4.90;99.90;;;;;;10534279;28;20044;-66
2020/12/02 09:25:44;;;;;;;51.72;22.35;;;5.00;99.90;;;;;;10532099;28;20458;-66
2020/12/02 09:30:45;;;;;;;58.38;23.98;;;5.00;99.90;;;;;;10528693;28;20109;-67
2020/12/02 09:35:49;;;;;;;63.00;25.40;;;4.80;99.90;;;;;;10532891;28;20051;-66
2020/12/02 09:40:51;;;;;;;55.97;24.60;;;4.80;99.90;;;;;;10533247;28;20064;-66
2020/12/02 09:45:58;;;;;;;61.85;24.38;;;4.70;99.90;;;;;;10531166;28;20089;-68
2020/12/02 09:51:20;;;;;;;59.65;24.00;;;4.80;99.90;;;;;;10525038;28;20560;-69
2020/12/02 09:56:22;;;;;;;;;;;4.90;99.90;;;;;;10529618;28;20052;-69
2020/12/02 10:02:09;;;;;;;64.63;24.65;;;4.80;99.90;;;;;;10523287;28;19920;-69
2020/12/02 10:07:39;;;;;;;78.88;26.10;;;4.90;99.90;;;;;;10534269;28;20083;-69
2020/12/02 10:12:53;;;;;;;67.60;25.45;;;5.10;99.90;;;;;;10529556;28;20083;-68
2020/12/02 10:18:16;;;;;;;73.47;25.25;;;5.10;99.90;;;;;;10521185;28;20441;-68
2020/12/02 10:23:44;;;;;;;55.92;24.40;;;5.30;99.90;;;;;;10529184;28;20052;-69
2020/12/02 10:29:01;;;;;;;63.03;27.08;;;5.20;99.90;;;;;;10529184;28;20068;-68
2020/12/02 10:34:31;;;;;;;58.25;26.73;;;5.10;99.90;;;;;;10524754;28;20083;-68
2020/12/02 10:39:33;;;;;;;62.40;28.08;;;5.00;99.40;;;;;;10532426;28;20575;-69
2020/12/02 10:45:10;;;;;;;57.83;25.73;;;4.80;99.70;;;;;;10521320;28;20495;-69
2020/12/02 10:50:11;;;;;;;51.17;27.67;;;4.90;99.90;;;;;;10525281;28;20101;-68
2020/12/02 10:55:16;;;;;;;66.85;29.60;;;4.80;99.70;;;;;;10525842;28;20381;-69
2020/12/02 11:00:17;;;;;;;59.65;27.58;;;4.90;99.90;;;;;;10528565;28;20105;-68
2020/12/02 11:05:19;;;;;;;55.30;27.50;;;5.00;99.60;;;;;;10529125;28;20052;-69
2020/12/02 11:10:22;;;;;;;58.13;29.05;;;5.10;99.50;;;;;;10531611;28;20048;-69
2020/12/02 11:15:45;;;;;;;55.13;29.55;;;5.10;99.50;;;;;;10529473;28;20464;-69
2020/12/02 11:21:26;;;;;;;56.03;28.55;;;5.30;98.70;;;;;;10530632;28;20047;-69
2020/12/02 11:26:31;;;;;;;60.70;29.63;;;5.20;99.10;;;;;;10520544;28;20061;-68
2020/12/02 11:31:47;;;;;;;61.80;28.90;;;5.20;99.20;;;;;;10531527;28;20039;-69
2020/12/02 11:36:48;;;;;;;75.10;31.70;;;5.20;99.20;;;;;;10526988;28;20471;-69
2020/12/02 11:42:15;;;;;;;64.32;29.02;;;5.30;99.30;;;;;;10526747;28;20083;-68
2020/12/02 11:47:35;;;;;;;60.60;28.17;;;5.30;99.00;;;;;;10529693;28;20036;-69
2020/12/02 11:53:05;;;;;;;56.73;23.23;;;5.10;99.20;;;;;;10533395;28;20135;-69
2020/12/02 11:58:09;;;;;;;62.47;27.80;;;5.00;99.30;;;;;;10530873;28;20043;-68
2020/12/02 12:03:35;;;;;;;68.70;29.95;;;5.20;99.90;;;;;;10533970;28;20048;-69
2020/12/02 12:09:15;;;;;;;64.65;27.83;;;5.30;99.20;;;;;;10544899;28;20415;-69
2020/12/02 12:15:00;;;;;;;65.40;28.13;;;5.40;99.60;;;;;;10522019;28;20442;-68
2020/12/02 12:20:12;;;;;;;51.00;25.23;;;5.50;99.10;;;;;;10527541;28;20094;-69
2020/12/02 12:25:19;;;;;;;56.00;26.65;;;5.50;98.70;;;;;;10524810;28;20040;-69
2020/12/02 12:30:20;;;;;;;48.60;24.40;;;5.50;98.30;;;;;;10525677;28;20047;-69
2020/12/02 12:35:29;;;;;;;60.38;27.02;;;5.50;98.20;;;;;;10525570;28;20043;-69
2020/12/02 12:40:35;;;;;;;54.47;26.75;;;5.60;98.20;;;;;;10519397;28;20535;-69
2020/12/02 12:45:45;;;;;;;48.90;25.98;;;5.60;98.40;;;;;;10523131;28;20135;-69
2020/12/02 12:50:50;;;;;;;47.15;25.27;;;5.50;98.20;;;;;;10523793;28;20040;-69
2020/12/02 12:55:57;;;;;;;53.50;25.75;;;5.50;97.90;;;;;;10521119;28;20044;-69
2020/12/02 13:00:58;;;;;;;51.38;27.27;;;5.50;97.70;;;;;;10523551;28;20131;-68
2020/12/02 13:06:09;;;;;;;60.47;29.17;;;5.60;97.80;;;;;;10514772;28;20457;-69
2020/12/02 13:11:33;;;;;;;35.60;21.55;;;5.60;97.90;;;;;;10531320;28;20101;-69
2020/12/02 13:17:32;;;;;;;36.00;22.15;;;5.60;97.10;;;;;;10518904;28;20068;-69
2020/12/02 13:23:08;;;;;;;38.05;21.83;;;5.60;96.40;;;;;;10528826;28;20047;-68
2020/12/02 13:28:20;;;;;;;37.92;22.27;;;5.50;96.60;;;;;;10523014;28;20047;-68
2020/12/02 13:33:35;;;;;;;31.60;20.77;;;5.50;97.00;;;;;;10533956;28;20188;-68
2020/12/02 13:38:37;;;;;;;39.10;23.08;;;5.60;95.80;;;;;;10536291;28;20521;-69
2020/12/02 13:43:39;;;;;;;36.35;22.58;;;5.40;96.20;;;;;;10529556;28;20059;-69
2020/12/02 13:48:41;;;;;;;35.08;21.92;;;5.50;97.10;;;;;;10535735;28;20060;-69
2020/12/02 13:53:48;;;;;;;40.13;23.48;;;5.50;96.90;;;;;;10533998;28;20135;-69
2020/12/02 13:59:13;;;;;;;40.78;24.05;;;5.40;96.70;;;;;;10528200;28;20126;-68
2020/12/02 14:04:32;;;;;;;39.78;23.40;;;5.40;97.60;;;;;;10527865;28;20068;-69
2020/12/02 14:09:39;;;;;;;35.53;23.20;;;5.40;97.20;;;;;;10532794;28;20052;-68
2020/12/02 14:14:44;;;;;;;38.42;23.80;;;5.40;97.10;;;;;;10523815;28;20044;-69
2020/12/02 14:19:46;;;;;;;36.63;21.58;;;5.50;97.10;;;;;;10534119;28;20040;-68
2020/12/02 14:24:51;;;;;;;35.72;22.58;;;5.70;96.80;;;;;;10535021;28;20075;-68
2020/12/02 14:29:55;;;;;;;35.63;22.38;;;5.70;96.60;;;;;;10531138;28;20497;-69
2020/12/02 14:34:56;;;;;;;36.85;21.58;;;5.70;96.70;;;;;;10531770;28;20044;-68
2020/12/02 14:39:58;;;;;;;28.40;18.70;;;5.50;96.80;;;;;;10515758;28;20386;-68
2020/12/02 14:45:00;;;;;;;33.72;19.88;;;5.40;96.40;;;;;;10522593;28;20048;-68
2020/12/02 14:50:02;;;;;;;33.25;20.55;;;5.50;95.90;;;;;;10528236;28;20093;-69
2020/12/02 14:55:04;;;;;;;28.67;18.17;;;5.50;96.20;;;;;;10528372;28;20072;-69
2020/12/02 15:00:06;;;;;;;30.65;19.90;;;5.50;95.50;;;;;;10526167;28;20032;-69
2020/12/02 15:05:21;;;;;;;28.60;17.70;;;5.50;95.90;;;;;;10529762;28;20043;-69
2020/12/02 15:10:26;;;;;;;27.75;17.00;;;5.50;95.80;;;;;;10531081;28;20048;-69
2020/12/02 15:15:32;;;;;;;21.85;14.13;;;5.30;95.70;;;;;;10526463;28;20079;-69
2020/12/02 15:20:41;;;;;;;17.83;12.23;;;5.20;95.90;;;;;;10532760;28;20075;-69
2020/12/02 15:25:42;;;;;;;23.88;15.30;;;5.30;95.50;;;;;;10531394;28;20044;-68
2020/12/02 15:30:47;;;;;;;29.67;19.17;;;5.40;95.60;;;;;;10522143;28;20472;-68
2020/12/02 15:36:07;;;;;;;29.58;18.77;;;5.40;95.80;;;;;;10527967;28;20091;-68
2020/12/02 15:41:36;;;;;;;32.80;20.45;;;5.40;95.50;;;;;;10527478;28;20665;-69
2020/12/02 15:47:01;;;;;;;34.25;22.08;;;5.30;95.70;;;;;;10529035;28;20046;-69
2020/12/02 15:52:23;;;;;;;35.53;22.67;;;5.20;96.10;;;;;;10531557;28;20101;-69
2020/12/02 15:57:34;;;;;;;33.03;20.80;;;5.20;96.60;;;;;;10528778;28;20067;-68
2020/12/02 16:02:36;;;;;;;35.47;21.98;;;5.20;96.60;;;;;;10528624;28;20135;-69
2020/12/02 16:07:44;;;;;;;34.67;21.50;;;5.30;96.50;;;;;;10526496;28;20048;-68
2020/12/02 16:12:45;;;;;;;37.17;22.70;;;5.30;96.10;;;;;;10528864;28;20444;-69
2020/12/02 16:17:48;;;;;;;34.78;22.23;;;5.30;96.40;;;;;;10531076;28;20071;-69
2020/12/02 16:23:19;;;;;;;32.55;20.23;;;5.20;97.00;;;;;;10527365;28;20059;-69
2020/12/02 16:28:29;;;;;;;35.22;20.50;;;5.20;97.10;;;;;;10524579;28;20056;-66
2020/12/02 16:33:44;;;;;;;22.63;15.40;;;5.20;97.40;;;;;;10516373;28;20052;-66
2020/12/02 16:38:53;;;;;;;26.20;16.52;;;5.10;97.00;;;;;;10522461;28;20036;-65
2020/12/02 16:44:19;;;;;;;28.50;17.48;;;5.10;96.80;;;;;;10531958;28;20320;-66
2020/12/02 16:50:02;;;;;;;24.13;15.32;;;5.10;97.00;;;;;;10538591;28;20500;-66
2020/12/02 16:55:09;;;;;;;26.98;16.90;;;5.00;97.30;;;;;;10527516;28;20083;-66
2020/12/02 17:00:10;;;;;;;30.92;18.60;;;5.00;97.30;;;;;;10541303;28;20044;-65
2020/12/02 17:05:26;;;;;;;27.33;17.25;;;5.10;97.60;;;;;;10540950;28;20127;-65
2020/12/02 17:10:30;;;;;;;31.20;17.75;;;5.00;97.30;;;;;;10539683;28;20101;-66
2020/12/02 17:15:53;;;;;;;31.42;18.92;;;5.00;97.80;;;;;;10537253;28;20040;-66
2020/12/02 17:21:05;;;;;;;39.25;19.90;;;5.00;98.00;;;;;;10538813;28;20093;-66
2020/12/02 17:26:33;;;;;;;35.17;19.13;;;5.00;98.10;;;;;;10538333;28;20052;-66
2020/12/02 17:32:07;;;;;;;39.28;19.52;;;5.00;98.00;;;;;;10536491;28;20048;-66
2020/12/02 17:37:29;;;;;;;37.40;21.63;;;5.00;97.90;;;;;;10537135;28;20515;-65
2020/12/02 17:42:48;;;;;;;29.80;18.50;;;4.90;97.90;;;;;;10540685;28;20470;-65
2020/12/02 17:48:14;;;;;;;33.30;20.17;;;4.90;98.30;;;;;;10540490;28;20048;-65
2020/12/02 17:53:19;;;;;;;39.40;22.30;;;4.90;97.70;;;;;;10540009;28;20044;-66
2020/12/02 17:58:34;;;;;;;41.13;25.63;;;4.80;97.70;;;;;;10538285;28;20044;-66
2020/12/02 18:03:56;;;;;;;43.45;22.98;;;4.80;98.20;;;;;;10539665;28;20147;-65
2020/12/02 18:09:34;;;;;;;38.97;21.88;;;4.80;98.10;;;;;;10538994;28;20156;-66
2020/12/02 18:14:42;;;;;;;46.70;26.38;;;4.80;98.30;;;;;;10524577;28;20450;-66
2020/12/02 18:20:02;;;;;;;48.33;25.98;;;4.70;98.00;;;;;;10538009;28;20319;-65
2020/12/02 18:25:28;;;;;;;30.85;19.25;;;4.80;98.40;;;;;;10536123;28;20072;-66
2020/12/02 18:31:00;;;;;;;28.52;18.83;;;4.80;97.50;;;;;;10533644;28;20395;-66
2020/12/02 18:36:24;;;;;;;25.58;17.33;;;4.70;98.00;;;;;;10535808;28;20040;-65
2020/12/02 18:41:25;;;;;;;29.67;18.67;;;4.80;97.10;;;;;;10533696;28;20051;-65
2020/12/02 18:46:36;;;;;;;28.00;19.02;;;4.70;97.70;;;;;;10535308;28;20040;-66
2020/12/02 18:51:37;;;;;;;31.63;19.83;;;4.80;98.00;;;;;;10535366;28;20063;-66
2020/12/02 18:56:50;;;;;;;32.40;19.48;;;4.70;97.70;;;;;;10538040;28;20048;-65
2020/12/02 19:01:54;;;;;;;39.15;21.38;;;4.80;98.10;;;;;;10537016;28;20101;-66
2020/12/02 19:07:05;;;;;;;50.00;24.85;;;4.80;98.40;;;;;;10536253;28;20048;-65
2020/12/02 19:12:25;;;;;;;70.65;24.83;;;4.80;98.40;;;;;;10532481;28;20580;-66
2020/12/02 19:18:09;;;;;;;39.75;20.55;;;4.70;98.50;;;;;;10532152;28;20515;-65
2020/12/02 19:23:35;;;;;;;33.05;20.55;;;4.60;99.00;;;;;;10506871;28;20488;-66
2020/12/02 19:28:54;;;;;;;39.55;23.52;;;4.60;99.30;;;;;;10534065;28;20124;-66
2020/12/02 19:34:20;;;;;;;40.90;23.35;;;4.60;98.90;;;;;;10531086;28;20476;-66
2020/12/02 19:39:56;;;;;;;35.10;21.70;;;4.60;98.70;;;;;;10532296;28;20540;-66
2020/12/02 19:45:17;;;;;;;35.70;20.38;;;4.60;98.60;;;;;;10531961;28;20468;-66
2020/12/02 19:50:18;;;;;;;34.37;20.37;;;4.50;98.90;;;;;;10536436;28;20055;-65
2020/12/02 19:55:20;;;;;;;34.63;20.30;;;4.50;98.80;;;;;;10535691;28;20785;-66
2020/12/02 20:00:32;;;;;;;30.30;20.00;;;4.60;98.80;;;;;;10536311;28;20048;-65
2020/12/02 20:06:00;;;;;;;32.88;20.33;;;4.70;98.10;;;;;;10534726;28;20450;-66
2020/12/02 20:11:05;;;;;;;33.85;21.55;;;4.70;98.20;;;;;;10534333;28;20101;-66
2020/12/02 20:16:09;;;;;;;31.80;21.17;;;4.70;98.30;;;;;;10534772;28;20048;-65
2020/12/02 20:21:19;;;;;;;34.78;21.75;;;4.70;98.00;;;;;;10541272;28;20534;-66
2020/12/02 20:26:34;;;;;;;35.88;22.73;;;4.70;98.20;;;;;;10542788;28;20511;-66
2020/12/02 20:31:37;;;;;;;35.42;21.55;;;4.60;97.80;;;;;;10542619;28;20048;-66
2020/12/02 20:36:38;;;;;;;31.65;21.50;;;4.60;98.10;;;;;;10542624;28;20528;-66
2020/12/02 20:41:45;;;;;;;30.45;20.20;;;4.60;97.90;;;;;;10543404;28;20093;-66
2020/12/02 20:46:58;;;;;;;29.20;19.15;;;4.70;97.70;;;;;;10541789;28;20044;-66
2020/12/02 20:52:26;;;;;;;30.42;19.77;;;4.70;97.10;;;;;;10542574;28;20087;-66
2020/12/02 20:57:34;;;;;;;27.27;18.67;;;4.60;97.50;;;;;;10541440;28;20070;-66
2020/12/02 21:02:47;;;;;;;31.23;21.00;;;4.60;97.60;;;;;;10542473;28;20575;-66
2020/12/02 21:08:03;;;;;;;30.55;20.73;;;4.60;97.20;;;;;;10541234;28;20086;-66
2020/12/02 21:13:05;;;;;;;31.88;21.05;;;4.60;97.30;;;;;;10501924;28;20080;-66
2020/12/02 21:18:13;;;;;;;30.10;20.95;;;4.60;97.70;;;;;;10541941;28;20047;-66
2020/12/02 21:23:17;;;;;;;35.88;22.42;;;4.80;97.40;;;;;;10541534;28;20397;-66
2020/12/02 21:28:43;;;;;;;36.35;22.30;;;4.70;97.30;;;;;;10541372;28;20106;-66
2020/12/02 21:34:14;;;;;;;35.40;22.30;;;4.70;97.40;;;;;;10539352;28;20052;-66
2020/12/02 21:39:35;;;;;;;45.88;25.80;;;4.70;97.70;;;;;;10539977;28;20052;-66
2020/12/02 21:45:13;;;;;;;40.03;24.52;;;4.70;97.80;;;;;;10539744;28;20085;-66
2020/12/02 21:50:37;;;;;;;51.03;27.02;;;4.70;98.00;;;;;;10539899;28;20059;-66
2020/12/02 21:55:55;;;;;;;40.55;23.60;;;4.70;97.90;;;;;;10539589;28;20374;-66
2020/12/02 22:00:57;;;;;;;42.95;23.48;;;4.60;98.00;;;;;;10538710;28;20109;-66
2020/12/02 22:06:01;;;;;;;44.00;24.27;;;4.60;98.10;;;;;;10538939;28;20048;-65
2020/12/02 22:11:21;;;;;;;49.08;25.15;;;4.70;98.10;;;;;;10538979;28;20492;-66
2020/12/02 22:17:16;;;;;;;39.20;23.27;;;4.70;98.10;;;;;;10538358;28;20511;-66
2020/12/02 22:22:39;;;;;;;55.53;26.20;;;4.70;98.10;;;;;;10533371;28;20048;-66
2020/12/02 22:27:48;;;;;;;50.17;26.90;;;4.60;98.30;;;;;;10528591;28;20079;-66
2020/12/02 22:33:11;;;;;;;52.75;25.00;;;4.60;98.30;;;;;;10523264;28;20052;-66
2020/12/02 22:38:23;;;;;;;89.22;29.35;;;4.40;98.50;;;;;;10512466;28;20457;-65
2020/12/02 22:43:27;;;;;;;54.97;28.30;;;4.50;98.40;;;;;;10512814;28;20101;-66
2020/12/02 22:48:37;;;;;;;38.03;23.48;;;4.40;98.50;;;;;;10535759;28;20497;-66
2020/12/02 22:53:45;;;;;;;47.00;25.23;;;4.40;98.80;;;;;;10535124;28;20094;-66
2020/12/02 22:58:50;;;;;;;42.22;23.92;;;4.40;98.60;;;;;;10516744;28;20092;-66
2020/12/02 23:03:52;;;;;;;44.75;25.33;;;4.40;98.70;;;;;;10535885;28;20056;-66
2020/12/02 23:09:01;;;;;;;36.97;23.25;;;4.40;98.30;;;;;;10519183;28;20143;-66
2020/12/02 23:14:05;;;;;;;47.58;25.27;;;4.40;98.20;;;;;;10534722;28;20151;-66
2020/12/02 23:19:09;;;;;;;42.88;24.73;;;4.50;98.50;;;;;;10535093;28;20589;-65
2020/12/02 23:24:11;;;;;;;39.80;23.50;;;4.50;98.60;;;;;;10535573;28;20098;-66
2020/12/02 23:29:24;;;;;;;41.80;24.58;;;4.50;98.60;;;;;;10534551;28;20154;-66
2020/12/02 23:34:27;;;;;;;40.67;23.80;;;4.40;98.30;;;;;;10515021;28;20427;-65
2020/12/02 23:39:32;;;;;;;46.72;25.15;;;4.30;98.70;;;;;;10528027;28;20044;-66
2020/12/02 23:45:00;;;;;;;85.07;31.48;;;4.30;98.90;;;;;;10517021;28;20522;-66
2020/12/02 23:50:13;;;;;;;44.15;24.92;;;4.30;99.30;;;;;;10530364;28;20040;-66
2020/12/02 23:55:24;;;;;;;35.60;22.45;;;4.40;99.10;;;;;;10533081;28;20582;-66
